KESN/ESN METAR and TAF weather

Enter ICAO airport designator
Station Type Date Time Source
KESN METAR 2020/04/05 22:50 UTC NOAA

KESN 052250Z 17008KT 10SM BKN150 18/07 A3006


Station Type Date Time Source
KESN Decoded METAR 2020/04/05 22:50 UTC NOAA

Easton / Newman Field, MD, United States (KESN) 38-48N 076-04W
Apr 05, 2020 - 06:50 PM EDT / 2020.04.05 2250 UTC
Wind: from the S (170 degrees) at 9 MPH (8 KT):0
Visibility: 10 mile(s):0
Sky conditions: mostly cloudy
Temperature: 64 F (18 C)
Dew Point: 44 F (7 C)
Relative Humidity: 48%
Pressure (altimeter): 30.06 in. Hg (1017 hPa)
ob: KESN 052250Z 17008KT 10SM BKN150 18/07 A3006
cycle: 23

Station Type Date Time Source
KESN TAF UTC NOAA

Error!

Example: see airport list